• Join FlightAware (Why Join?)
  • Login
  • US Flag 
02:45AM EDT


 

Airport Tracker/Info


-or-


 

Live Flight TrackerFlight Track Log ✈ EJA646 ✈ 21-Apr-2013 ✈ KBED - KPWK

Flight Track Log - Related Links

Times and Time Zones

All times are in EDT time to prevent confusion due to time zone crossing. See the EJA646 flight status page for this flight to view local times or setup timezone preferences in your user account.

Time Position Orientation Groundspeed Altitude Reporting Facility
EDT Latitude Longitude Course Direction KTS MPH feet Rate Location/Type
03:12PM 42.4667 -71.3167 343° North 162 186 1,200  Level KA90
03:14PM 42.5514 -71.3522 343° North 257 296 7,500 3,180 Climbing Boston Center
03:15PM 42.6097 -71.3314 15° North 251 289 10,900 3,000 Climbing Boston Center
03:16PM 42.6969 -71.3044 13° North 271 312 13,600 2,340 Climbing Boston Center
03:17PM 42.7661 -71.3342 342° North 288 331 15,600 2,100 Climbing Boston Center
03:18PM 42.7983 -71.4469 291° West 274 315 17,800 1,560 Climbing Boston Center
03:19PM 42.8053 -71.5431 276° West 284 327 18,800 1,560 Climbing Boston Center
03:20PM 42.8208 -71.6758 279° West 312 359 21,000 2,100 Climbing Boston Center
03:21PM 42.8319 -71.7975 277° West 323 372 23,100 1,920 Climbing Boston Center
03:22PM 42.8431 -71.9164 277° West 323 372 24,900 1,680 Climbing Boston Center
03:23PM 42.8561 -72.0350 279° West 328 377 26,500 1,380 Climbing Boston Center
03:24PM 42.8647 -72.1342 277° West 328 377 27,700 1,560 Climbing Boston Center
03:25PM 42.8839 -72.2928 279° West 328 377 29,700 1,800 Climbing Boston Center
03:26PM 42.8944 -72.4147 277° West 328 377 31,300 1,500 Climbing Boston Center
03:27PM 42.9047 -72.5308 277° West 328 377 32,800 1,380 Climbing Boston Center
03:28PM 42.9067 -72.6497 271° West 328 377 34,100 1,260 Climbing Boston Center
03:29PM 42.9189 -72.7661 278° West 328 377 35,400 1,200 Climbing Boston Center
03:30PM 42.9269 -72.8797 276° West 317 365 36,600 900 Climbing Boston Center
03:31PM 42.9347 -72.9761 276° West 317 365 37,200 660 Climbing Boston Center
03:32PM 42.9506 -73.1125 279° West 317 365 38,000 780 Climbing Boston Center
03:33PM 42.9583 -73.2317 275° West 317 365 38,800 660 Climbing Boston Center
03:34PM 42.9678 -73.3508 276° West 317 365 39,400 540 Climbing Boston Center
03:35PM 42.9750 -73.4814 274° West 317 365 39,900 300 Climbing Boston Center
03:36PM 42.9842 -73.6008 276° West 317 365 40,000  Climbing Boston Center
03:37PM 42.9956 -73.7261 277° West 327 376 40,000  Level Boston Center
03:38PM 43.0064 -73.8597 276° West 337 388 40,000  Level Boston Center
03:39PM 43.0131 -73.9875 274° West 343 395 40,000  Level Boston Center
03:40PM 43.0258 -74.1186 278° West 348 400 40,000  Level Boston Center
03:41PM 43.0342 -74.2522 275° West 348 400 40,000  Level Boston Center
03:42PM 43.0444 -74.3806 276° West 348 400 40,000  Level Boston Center
03:43PM 43.0547 -74.5086 276° West 348 400 40,000  Level Boston Center
03:44PM 43.0628 -74.6369 275° West 348 400 40,000  Level Boston Center
03:45PM 43.0706 -74.7678 275° West 348 400 40,000  Level Boston Center
03:46PM 43.0806 -74.8961 276° West 348 400 40,000  Level Boston Center
03:47PM 43.0881 -75.0272 275° West 348 400 40,000  Level Boston Center
03:48PM 43.0956 -75.1442 275° West 348 400 40,000  Level Boston Center
03:49PM 43.1050 -75.2728 276° West 348 400 40,000  Level Boston Center
03:50PM 43.1122 -75.4067 274° West 348 400 40,000  Level Boston Center
03:51PM 43.1211 -75.5353 275° West 348 400 40,000  Level Boston Center
03:52PM 43.1300 -75.6636 275° West 348 400 40,000  Level Boston Center
03:54PM 43.1369 -75.7922 274° West 348 400 40,000  Level Boston Center
03:55PM 43.1333 -76.0167 269° West 330 380 40,000  Level Toronto Center
03:56PM 43.1553 -76.1089 288° West 344 396 40,000  Level Cleveland Center
03:57PM 43.1581 -76.2369 272° West 344 396 40,000  Level Cleveland Center
03:58PM 43.1483 -76.3656 264° West 344 396 40,000  Level Cleveland Center
03:59PM 43.1383 -76.4944 264° West 349 402 40,000  Level Cleveland Center
04:00PM 43.1261 -76.6261 263° West 354 407 40,000  Level Cleveland Center
04:01PM 43.1117 -76.7550 261° West 354 407 40,000  Level Cleveland Center
04:02PM 43.1014 -76.8808 264° West 354 407 40,000  Level Cleveland Center
04:03PM 43.0886 -77.0122 262° West 354 407 40,000  Level Cleveland Center
04:04PM 43.0781 -77.1408 264° West 354 407 40,000  Level Cleveland Center
04:05PM 43.0653 -77.2725 262° West 354 407 40,000  Level Cleveland Center
04:06PM 43.0542 -77.4008 263° West 354 407 40,000  Level Cleveland Center
04:07PM 43.0431 -77.5294 263° West 354 407 40,000  Level Cleveland Center
04:08PM 43.0297 -77.6578 262° West 354 407 40,000  Level Cleveland Center
04:09PM 43.0161 -77.7861 262° West 354 407 40,000  Level Cleveland Center
04:10PM 43.0047 -77.9175 263° West 354 407 40,000  Level Cleveland Center
04:11PM 42.9908 -78.0456 262° West 354 407 40,000  Level Cleveland Center
04:12PM 42.9792 -78.1739 263° West 354 407 40,000  Level Cleveland Center
04:13PM 42.9633 -78.3164 261° West 354 407 40,000  Level Cleveland Center
04:14PM 42.9511 -78.4444 263° West 354 407 40,000  Level Cleveland Center
04:15PM 42.9367 -78.5783 262° West 354 407 40,000  Level Cleveland Center
04:16PM 42.9347 -78.7089 269° West 354 407 40,000  Level Cleveland Center
04:17PM 42.9411 -78.8392 274° West 354 407 40,000  Level Cleveland Center
04:17PM 42.9333 -78.9000 260° West 350 403 40,000  Level Toronto Center
04:18PM 42.9500 -79.0167 281° West 350 403 40,000  Level Toronto Center
04:19PM 42.9500 -79.1500 270° West 350 403 40,000  Level Toronto Center
04:20PM 42.9500 -79.2833 270° West 360 414 40,000  Level Toronto Center
04:21PM 42.9667 -79.4333 279° West 360 414 40,000  Level Toronto Center
04:22PM 42.9667 -79.5667 270° West 360 414 40,000  Level Toronto Center
04:23PM 42.9667 -79.7000 270° West 360 414 40,000  Level Toronto Center
04:24PM 42.9833 -79.8333 280° West 360 414 40,000  Level Toronto Center
04:25PM 42.9833 -79.9667 270° West 360 414 40,000  Level Toronto Center
04:26PM 42.9833 -80.0833 270° West 360 414 40,000  Level Toronto Center
04:27PM 43.0000 -80.2333 279° West 350 403 40,000  Level Toronto Center
04:28PM 43.0000 -80.3833 270° West 350 403 40,000  Level Toronto Center
04:29PM 43.0000 -80.5000 270° West 350 403 40,000  Level Toronto Center
04:30PM 43.0167 -80.6333 280° West 350 403 40,000  Level Toronto Center
04:31PM 43.0167 -80.7667 270° West 350 403 40,000  Level Toronto Center
04:32PM 43.0167 -80.8833 270° West 350 403 40,000  Level Toronto Center
04:33PM 43.0167 -81.0167 270° West 350 403 40,000  Level Toronto Center
04:34PM 43.0167 -81.1667 270° West 350 403 40,000  Level Toronto Center
04:35PM 43.0167 -81.3000 270° West 350 403 40,000  Level Toronto Center
04:36PM 43.0167 -81.4167 270° West 350 403 40,000  Level Toronto Center
04:37PM 43.0167 -81.5500 270° West 350 403 40,000  Level Toronto Center
04:38PM 43.0167 -81.6833 270° West 350 403 40,000  Level Toronto Center
04:39PM 43.0167 -81.8167 270° West 350 403 40,000  Level Toronto Center
04:40PM 43.0000 -81.9667 261° West 350 403 40,000  Level Toronto Center
04:41PM 43.0000 -82.1000 270° West 350 403 40,000  Level Toronto Center
04:42PM 43.0000 -82.2167 270° West 350 403 40,000  Level Toronto Center
04:43PM 43.0000 -82.3500 270° West 350 403 40,000  Level Toronto Center
04:44PM 43.0000 -82.4833 270° West 350 403 40,000  Level Toronto Center
04:45PM 43.0000 -82.6167 270° West 350 403 40,000  Level Toronto Center
04:46PM 43.0006 -82.7519 270° West 347 399 40,000  Level Cleveland Center
04:47PM 42.9936 -82.8825 266° West 347 399 40,000  Level Cleveland Center
04:48PM 42.9911 -83.0128 269° West 347 399 40,000  Level Cleveland Center
04:49PM 42.9861 -83.1461 267° West 347 399 40,000  Level Cleveland Center
04:50PM 42.9831 -83.2764 268° West 347 399 40,000  Level Cleveland Center
04:51PM 42.9778 -83.4097 267° West 347 399 40,000  Level Cleveland Center
04:52PM 42.9747 -83.5400 268° West 347 399 40,000  Level Cleveland Center
04:53PM 42.9669 -83.6703 265° West 347 399 40,000  Level Cleveland Center
04:54PM 42.9531 -83.8031 262° West 347 399 40,000  Level Cleveland Center
04:55PM 42.9286 -83.9294 255° West 352 405 40,000 -300 Level Cleveland Center
04:56PM 42.9039 -84.0583 255° West 352 405 39,500 -840 Descending Cleveland Center
04:57PM 42.8747 -84.1900 253° West 357 411 38,400 -1,500 Descending Cleveland Center
04:58PM 42.8453 -84.3269 254° West 387 445 36,600 -2,100 Descending Cleveland Center
05:00PM 42.7833 -84.5833 252° West 360 414 32,400 -2,160 Descending Toronto Center
05:01PM 42.7783 -84.6658 265° West 357 411 31,200 -1,500 Descending Chicago Center
05:02PM 42.7508 -84.7947 254° West 356 410 30,000 -600 Descending Chicago Center
05:03PM 42.7231 -84.9239 254° West 355 409 30,000  Level Chicago Center
05:04PM 42.6958 -85.0547 254° West 359 413 30,000  Level Chicago Center
05:05PM 42.6672 -85.1844 253° West 358 412 30,000 -60 Level Chicago Center
05:06PM 42.6394 -85.3139 254° West 358 412 29,900 -780 Descending Chicago Center
05:07PM 42.6047 -85.4747 254° West 365 420 28,500 -1,440 Descending Chicago Center
05:08PM 42.5747 -85.6119 254° West 373 429 27,000 -1,800 Descending Chicago Center
05:09PM 42.5450 -85.7506 254° West 379 436 24,900 -2,040 Descending Chicago Center
05:10PM 42.5133 -85.8878 253° West 381 438 22,800 -2,100 Descending Chicago Center
05:11PM 42.4825 -86.0267 253° West 383 441 20,600 -1,380 Descending Chicago Center
05:12PM 42.4622 -86.1594 258° West 365 420 20,000 -300 Descending Chicago Center
05:13PM 42.4561 -86.2872 266° West 341 392 20,000 -360 Level Chicago Center
05:14PM 42.4483 -86.4417 266° West 343 395 19,300 -1,260 Descending Chicago Center
05:15PM 42.4411 -86.5750 266° West 353 406 17,500 -2,340 Descending Chicago Center
05:16PM 42.4350 -86.7097 267° West 357 411 14,600 -2,880 Descending Chicago Center
05:17PM 42.4269 -86.8211 264° West 305 351 11,600 -2,880 Descending Chicago Center
05:18PM 42.4217 -86.9231 266° West 276 318 8,700 -2,880 Descending Chicago Center
05:19PM 42.4164 -87.0189 266° West 258 297 5,700 -2,760 Descending Chicago Center
05:21PM 42.4103 -87.1139 265° West 253 291 3,100 -1,320 Descending Chicago Center
05:22PM 42.4025 -87.2333 265° West 261 300 3,000 -60 Descending Chicago Center
05:23PM 42.3958 -87.3314 265° West 262 302 3,000  Level Chicago Center
05:24PM 42.3683 -87.4281 249° West 259 298 3,000  Level Chicago Center
05:25PM 42.3367 -87.5564 252° West 224 258 3,000  Level Chicago Center
05:26PM 42.3036 -87.6603 247° West 248 285 3,000  Level Chicago Center
05:27PM 42.2781 -87.7439 248° West 248 285 3,000 -240 Level Chicago Center
05:28PM 42.2586 -87.8114 249° West 222 255 2,600 -300 Descending Chicago Center
05:29PM 42.2383 -87.8694 245° Southwest 192 221 2,500 -240 Descending Chicago Center
05:30PM 42.2136 -87.9206 237° Southwest 178 205 2,200 -360 Descending Chicago Center
05:31PM 42.1717 -87.9344 194° South 152 175 1,800 -300 Descending Chicago Center
05:32PM 42.1361 -87.9231 167° South 149 171 1,600 -240 Descending Chicago Center
05:34PM 42.1143 -87.9015 166° South  Level Estimated